x

Prince Edward Pt (45135) Wave Buoy

10:00pm - Sat 27th May 2017 All times are CDT. -5 hours from GMT.

  • Sig Wave height 0.3ft
  • Peak Period 2s
  • Wind
    4mph, 4mph gusts
  • Sea Temp 49°f
  • Air Temp 52°f
  • Sea Pressure 1012.7mb
  • Prince Edward Pt
  • Prince Edward Pt

More Historic Weather Station data

Upgrade to MSW Pro to gain access to the past 30 days of data for over 8000 Wavebouys and Weather Stations around the globe.

Join Pro

Comparision Forecast

View Surf forecast
   
Sat 05/27 10:00pm 0.3ft 2s 4 4 mph 1012.7mb 49f 52f
9:00pm 0.3ft 2s 4 7 mph 1012.8mb 49f 51f
8:00pm 0.3ft 3s 9 9 mph 1012.9mb 51f 52f
7:00pm 0.3ft 3s 9 9 mph 1013.2mb 52f 52f
6:00pm 0.3ft 3s 4 4 mph 1012.9mb 53f 54f
5:00pm 0.3ft 4s 7 9 mph 1012.4mb 55f 55f
4:00pm 0.3ft 3s 4 7 mph 1012.4mb 57f 57f
3:00pm 0.3ft 3s 4 7 mph 1012.4mb 56f 57f
2:00pm 0.3ft 3s 4 4 mph 1012.7mb 55f 58f
1:00pm 0.3ft 3s 2 2 mph 1013mb 54f 58f
12:00pm 0.3ft 3s  -  0 mph 1013.1mb 53f 56f
11:00am 0.3ft 5s 2 4 mph 1013.1mb 51f 53f
10:00am 0.3ft 3s 4 4 mph 1013.1mb 49f 51f
9:00am 0.3ft 3s 4 4 mph 1012.8mb 48f 50f
8:00am 0.3ft 3s 4 7 mph 1012.8mb 47f 50f
7:00am 0.3ft 3s 7 7 mph 1012.7mb 47f 50f
6:00am 0.3ft 2s 2 4 mph 1012.2mb 47f 50f
5:00am 0.3ft 4s 2 2 mph 1012mb 47f 49f
4:00am 0.3ft 2s  -  2 mph 1011.7mb 47f 48f
3:00am 0.3ft 3s 2 4 mph 1011.6mb 47f 50f
2:00am 0.3ft 3s 2 2 mph 1011.2mb 47f 49f
1:00am 0.3ft 3s 4 4 mph 1011.1mb 47f 49f
12:00am 0.3ft 5s 7 9 mph 1011mb 47f 49f
Fri 05/26 11:00pm 0.7ft 4s 4 7 mph 1011.1mb 47f 50f
10:00pm 0.7ft 3s 4 7 mph 1010.8mb 47f 50f
9:00pm 0.7ft 3s 7 7 mph 1010.4mb 47f 52f
8:00pm 0.7ft 3s 7 7 mph 1009.8mb 47f 52f
7:00pm 0.7ft 3s 7 7 mph 1009.6mb 47f 52f
6:00pm 0.7ft 3s 7 7 mph 1008.9mb 47f 50f
5:00pm 1ft 3s 9 9 mph 1008.2mb 47f 50f
4:00pm 1ft 3s 2 2 mph 1007.9mb 47f 50f
3:00pm 1ft 3s 9 9 mph 1007.3mb 47f 50f
2:00pm 0.7ft 2s 11 13 mph 1007mb 47f 49f
1:00pm 0.3ft 2s 11 13 mph 1005.8mb 47f 48f
12:00pm 0.3ft 2s 9 11 mph 1005.4mb 47f 47f
11:00am 0.3ft 6s 9 11 mph 1005mb 47f 49f
10:00am 0.3ft 2s 7 7 mph 1004.3mb 48f 52f
9:00am 0.3ft 2s 4 4 mph 1003.8mb 47f 51f
8:00am 0.3ft 2s 7 7 mph 1003.3mb 47f 50f
7:00am 0.3ft 2s 4 7 mph 1003.1mb 47f 49f
6:00am 0.3ft 2s 4 4 mph 1002.4mb 47f 49f
5:00am 0.7ft 3s 9 9 mph 1001.8mb 47f 50f
4:00am 0.7ft 3s 7 7 mph 1001mb 47f 49f
3:00am 0.7ft 3s 7 9 mph 1000.3mb 47f 50f
2:00am 1ft 3s 9 9 mph 1000.7mb 47f 50f
1:00am 1ft 3s 11 13 mph 1000.4mb 47f 50f
12:00am 1ft 3s 9 11 mph 1000.6mb 47f 50f
Thu 05/25 11:00pm 1.3ft 3s 11 13 mph 1000.7mb 47f 50f
10:00pm 1.3ft 3s 13 16 mph 1000.1mb 47f 51f
9:00pm 1.6ft 4s 13 16 mph 1000.5mb 47f 51f
8:00pm 1.6ft 4s 13 16 mph 1000.3mb 47f 51f
7:00pm 2ft 4s 16 18 mph 1000.4mb 47f 51f
6:00pm 2ft 4s 16 18 mph - 47f 51f
5:00pm 1.6ft 3s 16 18 mph 1000.1mb 47f 51f
4:00pm 1.3ft 3s 18 22 mph 1000.4mb 47f 51f
3:00pm 1.3ft 3s 18 22 mph 1001.3mb 47f 51f
2:00pm 1.6ft 3s 9 11 mph 1002.2mb 47f 51f
1:00pm 1.6ft 3s 16 18 mph 1001.9mb 47f 51f
12:00pm 1.6ft 3s 16 18 mph 1002.4mb 47f 51f
11:00am 1.6ft 3s 13 13 mph 1002.9mb 47f 51f
10:00am 1.6ft 3s 16 18 mph 1003.1mb 47f 51f
9:00am 1.6ft 3s 16 18 mph 1004mb 48f 52f
8:00am 1ft 2s 16 18 mph 1004.1mb 47f 52f
7:00am 0.7ft 2s 13 16 mph 1004.5mb 47f 53f
6:00am 0.7ft 2s 13 13 mph 1005.1mb 47f 53f
5:00am 0.7ft 2s 11 13 mph 1005.3mb 47f 53f
4:00am 0.7ft 3s 9 11 mph 1005.3mb 47f 53f
3:00am 0.7ft 2s 11 13 mph 1005.2mb 47f 54f
2:00am 1ft 3s 11 11 mph 1005.3mb 47f 53f
1:00am 0.7ft 3s 13 13 mph 1005.1mb 47f 55f
12:00am 0.7ft 2s 13 13 mph 1005.5mb 48f 55f
Wed 05/24 11:00pm 0.7ft 3s 11 13 mph 1005.6mb 48f 53f
10:00pm 0.7ft 3s 9 11 mph 1005.4mb 48f 55f
9:00pm 0.7ft 2s 9 11 mph 1005.7mb 48f 55f
8:00pm 0.7ft 2s 11 13 mph 1005.4mb 48f 56f
7:00pm 0.3ft 2s 13 13 mph 1004.7mb 48f 58f
6:00pm 0.3ft 4s 11 11 mph 1004.8mb 50f 58f
5:00pm  -  2s 11 13 mph 1005mb 50f 58f
4:00pm 0.3ft 3s 7 9 mph 1005mb 49f 56f
3:00pm  -  4s 9 9 mph 1005.4mb 49f 56f
2:00pm  -  2s 9 11 mph 1005.5mb 49f 55f
1:00pm 0.3ft 3s 9 11 mph 1005.7mb 50f 54f
12:00pm  -  4s 9 9 mph 1006.3mb 49f 52f
11:00am  -  2s 7 7 mph 1006.8mb 49f 51f
10:00am  -  4s 4 7 mph 1006.8mb 48f 50f
9:00am 0.3ft 4s 4 4 mph 1007.4mb 48f 50f
8:00am  -  3s 7 7 mph 1007.1mb 47f 50f
7:00am  -  3s 7 7 mph 1006.7mb 48f 50f
6:00am  -  3s 7 9 mph 1006.8mb 48f 50f
5:00am  -  3s 7 7 mph 1006.7mb 48f 51f